sensor_id;sensor_type;location;lat;lon;timestamp;pressure;altitude;pressure_sealevel;temperature;humidity
55171;BME280;41060;47.510;8.680;2023-03-13T00:01:57;96842.59;;;11.53;47.57
55171;BME280;41060;47.510;8.680;2023-03-13T00:04:25;96837.25;;;11.33;48.09
55171;BME280;41060;47.510;8.680;2023-03-13T00:06:51;96836.19;;;11.15;48.33
55171;BME280;41060;47.510;8.680;2023-03-13T00:09:19;96832.84;;;11.13;48.65
55171;BME280;41060;47.510;8.680;2023-03-13T00:11:48;96829.78;;;11.18;48.56
55171;BME280;41060;47.510;8.680;2023-03-13T00:14:14;96821.13;;;11.16;48.69
55171;BME280;41060;47.510;8.680;2023-03-13T00:16:42;96816.88;;;11.34;47.95
55171;BME280;41060;47.510;8.680;2023-03-13T00:19:08;96792.09;;;11.54;47.36
55171;BME280;41060;47.510;8.680;2023-03-13T00:21:35;96823.06;;;11.94;46.51
55171;BME280;41060;47.510;8.680;2023-03-13T00:24:05;96822.19;;;11.83;46.73
55171;BME280;41060;47.510;8.680;2023-03-13T00:26:31;96815.16;;;11.63;47.20
55171;BME280;41060;47.510;8.680;2023-03-13T00:28:59;96816.09;;;11.53;47.76
55171;BME280;41060;47.510;8.680;2023-03-13T00:31:27;96814.97;;;11.45;47.75
55171;BME280;41060;47.510;8.680;2023-03-13T00:33:57;96798.41;;;11.63;47.50
55171;BME280;41060;47.510;8.680;2023-03-13T00:36:26;96796.81;;;12.10;46.21
55171;BME280;41060;47.510;8.680;2023-03-13T00:38:55;96795.41;;;12.25;45.77
55171;BME280;41060;47.510;8.680;2023-03-13T00:41:23;96801.31;;;12.38;45.30
55171;BME280;41060;47.510;8.680;2023-03-13T00:43:50;96802.69;;;12.42;45.15
55171;BME280;41060;47.510;8.680;2023-03-13T00:46:21;96808.53;;;11.98;45.99
55171;BME280;41060;47.510;8.680;2023-03-13T00:48:48;96805.78;;;12.09;45.82
55171;BME280;41060;47.510;8.680;2023-03-13T00:51:16;96801.13;;;11.92;46.21
55171;BME280;41060;47.510;8.680;2023-03-13T00:53:44;96805.09;;;11.57;46.90
55171;BME280;41060;47.510;8.680;2023-03-13T00:56:12;96801.09;;;11.32;47.38
55171;BME280;41060;47.510;8.680;2023-03-13T00:58:40;96796.41;;;11.45;47.59
55171;BME280;41060;47.510;8.680;2023-03-13T01:01:10;96809.66;;;11.45;47.09
55171;BME280;41060;47.510;8.680;2023-03-13T01:03:39;96802.75;;;11.64;46.72
55171;BME280;41060;47.510;8.680;2023-03-13T01:06:09;96792.09;;;11.94;46.29
55171;BME280;41060;47.510;8.680;2023-03-13T01:08:36;96798.22;;;12.14;45.70
55171;BME280;41060;47.510;8.680;2023-03-13T01:11:04;96795.44;;;12.15;45.61
55171;BME280;41060;47.510;8.680;2023-03-13T01:13:32;96790.38;;;12.03;45.67
55171;BME280;41060;47.510;8.680;2023-03-13T01:16:01;96782.56;;;12.11;45.64
55171;BME280;41060;47.510;8.680;2023-03-13T01:18:28;96783.00;;;12.16;45.35
55171;BME280;41060;47.510;8.680;2023-03-13T01:20:56;96781.75;;;12.39;44.75
55171;BME280;41060;47.510;8.680;2023-03-13T01:23:23;96782.97;;;11.97;45.55
55171;BME280;41060;47.510;8.680;2023-03-13T01:25:49;96779.22;;;11.90;46.05
55171;BME280;41060;47.510;8.680;2023-03-13T01:28:16;96779.50;;;12.06;45.69
55171;BME280;41060;47.510;8.680;2023-03-13T01:30:43;96773.09;;;11.99;45.95
55171;BME280;41060;47.510;8.680;2023-03-13T01:33:09;96768.59;;;11.90;46.10
55171;BME280;41060;47.510;8.680;2023-03-13T01:35:36;96776.09;;;11.84;46.10
55171;BME280;41060;47.510;8.680;2023-03-13T01:38:04;96770.47;;;11.49;46.90
55171;BME280;41060;47.510;8.680;2023-03-13T01:40:31;96768.34;;;11.33;47.03
55171;BME280;41060;47.510;8.680;2023-03-13T01:43:14;96770.19;;;11.52;46.97
55171;BME280;41060;47.510;8.680;2023-03-13T01:46:10;96764.22;;;11.69;46.48
55171;BME280;41060;47.510;8.680;2023-03-13T01:48:48;96763.56;;;11.86;46.17
55171;BME280;41060;47.510;8.680;2023-03-13T01:51:19;96713.56;;;11.63;46.26
55171;BME280;41060;47.510;8.680;2023-03-13T01:53:53;96755.00;;;11.64;46.43
55171;BME280;41060;47.510;8.680;2023-03-13T01:56:24;96756.81;;;11.73;46.43
55171;BME280;41060;47.510;8.680;2023-03-13T01:58:55;96752.78;;;11.69;46.22
55171;BME280;41060;47.510;8.680;2023-03-13T02:01:23;96742.81;;;11.52;46.23
55171;BME280;41060;47.510;8.680;2023-03-13T02:03:51;96753.88;;;11.66;46.57
55171;BME280;41060;47.510;8.680;2023-03-13T02:06:18;96744.28;;;11.84;46.07
55171;BME280;41060;47.510;8.680;2023-03-13T02:08:51;96736.63;;;12.01;45.53
55171;BME280;41060;47.510;8.680;2023-03-13T02:11:28;96733.13;;;11.91;45.52
55171;BME280;41060;47.510;8.680;2023-03-13T02:13:58;96725.72;;;11.84;45.49
55171;BME280;41060;47.510;8.680;2023-03-13T02:16:27;96717.13;;;11.33;45.92
55171;BME280;41060;47.510;8.680;2023-03-13T02:18:54;96736.16;;;11.67;45.63
55171;BME280;41060;47.510;8.680;2023-03-13T02:21:35;96713.50;;;11.43;46.03
55171;BME280;41060;47.510;8.680;2023-03-13T02:24:12;96727.47;;;11.45;46.32
55171;BME280;41060;47.510;8.680;2023-03-13T02:26:44;96728.06;;;11.68;45.39
55171;BME280;41060;47.510;8.680;2023-03-13T02:29:11;96723.88;;;11.75;45.09
55171;BME280;41060;47.510;8.680;2023-03-13T02:31:45;96692.31;;;11.53;45.10
55171;BME280;41060;47.510;8.680;2023-03-13T02:34:15;96720.50;;;11.54;45.63
55171;BME280;41060;47.510;8.680;2023-03-13T02:36:44;96715.81;;;11.86;44.97
55171;BME280;41060;47.510;8.680;2023-03-13T02:39:13;96712.31;;;11.76;44.96
55171;BME280;41060;47.510;8.680;2023-03-13T02:41:44;96707.69;;;11.69;44.72
55171;BME280;41060;47.510;8.680;2023-03-13T02:44:12;96699.06;;;11.86;44.72
55171;BME280;41060;47.510;8.680;2023-03-13T02:46:43;96689.28;;;11.86;44.81
55171;BME280;41060;47.510;8.680;2023-03-13T02:49:19;96676.16;;;11.75;44.37
55171;BME280;41060;47.510;8.680;2023-03-13T02:51:47;96677.25;;;11.73;44.25
55171;BME280;41060;47.510;8.680;2023-03-13T02:54:17;96670.72;;;11.58;44.67
55171;BME280;41060;47.510;8.680;2023-03-13T02:56:47;96670.00;;;11.75;44.65
55171;BME280;41060;47.510;8.680;2023-03-13T02:59:15;96675.59;;;11.72;44.50
55171;BME280;41060;47.510;8.680;2023-03-13T03:01:41;96684.09;;;11.46;44.96
55171;BME280;41060;47.510;8.680;2023-03-13T03:04:09;96681.69;;;11.43;44.83
55171;BME280;41060;47.510;8.680;2023-03-13T03:06:37;96694.38;;;11.21;45.83
55171;BME280;41060;47.510;8.680;2023-03-13T03:09:06;96697.44;;;11.26;45.32
55171;BME280;41060;47.510;8.680;2023-03-13T03:11:37;96694.66;;;11.37;45.32
55171;BME280;41060;47.510;8.680;2023-03-13T03:14:05;96694.84;;;11.55;44.86
55171;BME280;41060;47.510;8.680;2023-03-13T03:16:31;96692.75;;;11.77;44.49
55171;BME280;41060;47.510;8.680;2023-03-13T03:18:58;96684.09;;;11.66;44.66
55171;BME280;41060;47.510;8.680;2023-03-13T03:21:35;96697.09;;;11.78;44.44
55171;BME280;41060;47.510;8.680;2023-03-13T03:24:02;96682.97;;;11.39;45.37
55171;BME280;41060;47.510;8.680;2023-03-13T03:26:29;96692.34;;;11.63;44.96
55171;BME280;41060;47.510;8.680;2023-03-13T03:28:58;96685.75;;;11.67;44.63
55171;BME280;41060;47.510;8.680;2023-03-13T03:31:27;96684.50;;;11.80;44.45
55171;BME280;41060;47.510;8.680;2023-03-13T03:33:53;96677.66;;;11.87;44.26
55171;BME280;41060;47.510;8.680;2023-03-13T03:36:21;96668.47;;;11.72;44.59
55171;BME280;41060;47.510;8.680;2023-03-13T03:38:49;96685.06;;;11.74;44.51
55171;BME280;41060;47.510;8.680;2023-03-13T03:41:16;96658.13;;;11.69;44.46
55171;BME280;41060;47.510;8.680;2023-03-13T03:43:43;96670.72;;;11.86;44.44
55171;BME280;41060;47.510;8.680;2023-03-13T03:46:10;96633.41;;;11.30;45.03
55171;BME280;41060;47.510;8.680;2023-03-13T03:48:38;96674.63;;;11.63;45.16
55171;BME280;41060;47.510;8.680;2023-03-13T03:51:05;96673.22;;;11.78;44.68
55171;BME280;41060;47.510;8.680;2023-03-13T03:53:33;96677.97;;;11.84;44.61
55171;BME280;41060;47.510;8.680;2023-03-13T03:56:00;96678.94;;;12.12;44.20
55171;BME280;41060;47.510;8.680;2023-03-13T03:58:27;96681.72;;;12.20;43.94
55171;BME280;41060;47.510;8.680;2023-03-13T04:00:55;96682.94;;;12.45;43.33
55171;BME280;41060;47.510;8.680;2023-03-13T04:03:22;96687.53;;;12.43;43.44
55171;BME280;41060;47.510;8.680;2023-03-13T04:05:51;96688.13;;;12.37;43.31
55171;BME280;41060;47.510;8.680;2023-03-13T04:08:18;96680.81;;;12.49;43.38
55171;BME280;41060;47.510;8.680;2023-03-13T04:10:47;96681.19;;;12.63;43.00
55171;BME280;41060;47.510;8.680;2023-03-13T04:13:14;96679.09;;;12.67;42.73
55171;BME280;41060;47.510;8.680;2023-03-13T04:15:41;96636.25;;;12.43;42.84
55171;BME280;41060;47.510;8.680;2023-03-13T04:18:07;96678.25;;;12.94;42.63
55171;BME280;41060;47.510;8.680;2023-03-13T04:20:35;96660.03;;;12.99;42.23
55171;BME280;41060;47.510;8.680;2023-03-13T04:23:03;96643.63;;;12.86;42.24
55171;BME280;41060;47.510;8.680;2023-03-13T04:25:30;96637.19;;;12.88;42.02
55171;BME280;41060;47.510;8.680;2023-03-13T04:27:56;96646.84;;;12.89;41.58
55171;BME280;41060;47.510;8.680;2023-03-13T04:30:23;96650.25;;;12.99;41.60
55171;BME280;41060;47.510;8.680;2023-03-13T04:32:50;96654.19;;;13.05;41.51
55171;BME280;41060;47.510;8.680;2023-03-13T04:35:16;96645.50;;;12.76;41.77
55171;BME280;41060;47.510;8.680;2023-03-13T04:37:44;96638.91;;;12.80;41.96
55171;BME280;41060;47.510;8.680;2023-03-13T04:40:15;96633.31;;;12.83;41.73
55171;BME280;41060;47.510;8.680;2023-03-13T04:42:42;96634.06;;;12.93;41.50
55171;BME280;41060;47.510;8.680;2023-03-13T04:45:10;96631.00;;;12.97;41.38
55171;BME280;41060;47.510;8.680;2023-03-13T04:47:37;96635.22;;;12.90;41.41
55171;BME280;41060;47.510;8.680;2023-03-13T04:50:04;96615.00;;;12.52;41.88
55171;BME280;41060;47.510;8.680;2023-03-13T04:52:32;96638.94;;;12.33;42.66
55171;BME280;41060;47.510;8.680;2023-03-13T04:54:58;96624.78;;;12.52;42.78
55171;BME280;41060;47.510;8.680;2023-03-13T04:57:26;96626.16;;;12.83;42.19
55171;BME280;41060;47.510;8.680;2023-03-13T04:59:53;96622.47;;;12.94;41.89
55171;BME280;41060;47.510;8.680;2023-03-13T05:02:19;96620.50;;;13.06;41.61
55171;BME280;41060;47.510;8.680;2023-03-13T05:04:47;96614.09;;;13.16;41.58
55171;BME280;41060;47.510;8.680;2023-03-13T05:07:14;96613.91;;;13.27;41.38
55171;BME280;41060;47.510;8.680;2023-03-13T05:09:41;96616.84;;;13.24;41.26
55171;BME280;41060;47.510;8.680;2023-03-13T05:12:08;96627.84;;;13.29;41.51
55171;BME280;41060;47.510;8.680;2023-03-13T05:14:36;96622.03;;;13.43;41.35
55171;BME280;41060;47.510;8.680;2023-03-13T05:17:03;96619.22;;;13.45;41.23
55171;BME280;41060;47.510;8.680;2023-03-13T05:19:29;96609.25;;;13.47;41.26
55171;BME280;41060;47.510;8.680;2023-03-13T05:21:59;96619.53;;;13.42;41.93
55171;BME280;41060;47.510;8.680;2023-03-13T05:24:29;96620.28;;;13.34;41.74
55171;BME280;41060;47.510;8.680;2023-03-13T05:26:55;96618.00;;;13.39;41.67
55171;BME280;41060;47.510;8.680;2023-03-13T05:29:22;96616.03;;;13.41;41.66
55171;BME280;41060;47.510;8.680;2023-03-13T05:31:50;96577.44;;;13.37;41.75
55171;BME280;41060;47.510;8.680;2023-03-13T05:34:16;96598.78;;;13.28;41.96
55171;BME280;41060;47.510;8.680;2023-03-13T05:36:44;96591.25;;;13.23;41.93
55171;BME280;41060;47.510;8.680;2023-03-13T05:39:10;96594.75;;;13.24;42.24
55171;BME280;41060;47.510;8.680;2023-03-13T05:41:37;96601.75;;;12.97;42.34
55171;BME280;41060;47.510;8.680;2023-03-13T05:44:04;96612.38;;;12.97;42.42
55171;BME280;41060;47.510;8.680;2023-03-13T05:46:30;96600.06;;;13.06;42.03
55171;BME280;41060;47.510;8.680;2023-03-13T05:48:59;96605.28;;;13.16;41.91
55171;BME280;41060;47.510;8.680;2023-03-13T05:51:26;96603.38;;;13.08;41.79
55171;BME280;41060;47.510;8.680;2023-03-13T05:53:53;96592.84;;;13.16;41.56
55171;BME280;41060;47.510;8.680;2023-03-13T05:56:19;96595.94;;;12.84;41.93
55171;BME280;41060;47.510;8.680;2023-03-13T05:58:46;96599.75;;;12.99;41.48
55171;BME280;41060;47.510;8.680;2023-03-13T06:01:13;96593.47;;;12.83;41.43
55171;BME280;41060;47.510;8.680;2023-03-13T06:03:40;96581.09;;;13.19;40.89
55171;BME280;41060;47.510;8.680;2023-03-13T06:06:08;96585.69;;;13.17;40.80
55171;BME280;41060;47.510;8.680;2023-03-13T06:08:35;96591.13;;;13.43;40.20
55171;BME280;41060;47.510;8.680;2023-03-13T06:11:02;96581.00;;;13.46;40.16
55171;BME280;41060;47.510;8.680;2023-03-13T06:13:29;96571.81;;;13.05;40.87
55171;BME280;41060;47.510;8.680;2023-03-13T06:15:56;96569.63;;;12.91;41.30
55171;BME280;41060;47.510;8.680;2023-03-13T06:18:24;96574.19;;;12.98;41.21
55171;BME280;41060;47.510;8.680;2023-03-13T06:20:55;96574.38;;;13.15;41.15
55171;BME280;41060;47.510;8.680;2023-03-13T06:23:24;96572.03;;;13.12;40.82
55171;BME280;41060;47.510;8.680;2023-03-13T06:25:51;96574.03;;;13.27;40.71
55171;BME280;41060;47.510;8.680;2023-03-13T06:28:18;96572.56;;;13.33;40.80
55171;BME280;41060;47.510;8.680;2023-03-13T06:30:44;96574.25;;;13.34;40.61
55171;BME280;41060;47.510;8.680;2023-03-13T06:33:12;96546.34;;;13.38;40.54
55171;BME280;41060;47.510;8.680;2023-03-13T06:35:39;96588.16;;;13.00;41.18
55171;BME280;41060;47.510;8.680;2023-03-13T06:38:07;96580.53;;;13.51;40.52
55171;BME280;41060;47.510;8.680;2023-03-13T06:40:36;96579.25;;;13.55;40.25
55171;BME280;41060;47.510;8.680;2023-03-13T06:43:03;96545.00;;;13.34;39.89
55171;BME280;41060;47.510;8.680;2023-03-13T06:45:29;96576.88;;;13.16;40.63
55171;BME280;41060;47.510;8.680;2023-03-13T06:47:56;96577.19;;;13.31;40.30
55171;BME280;41060;47.510;8.680;2023-03-13T06:50:23;96575.53;;;13.30;40.19
55171;BME280;41060;47.510;8.680;2023-03-13T06:52:51;96582.31;;;13.42;40.13
55171;BME280;41060;47.510;8.680;2023-03-13T06:55:19;96592.69;;;13.53;39.92
55171;BME280;41060;47.510;8.680;2023-03-13T06:57:49;96585.47;;;13.46;40.00
55171;BME280;41060;47.510;8.680;2023-03-13T07:00:17;96581.53;;;13.50;40.13
55171;BME280;41060;47.510;8.680;2023-03-13T07:02:44;96568.53;;;13.47;40.03
55171;BME280;41060;47.510;8.680;2023-03-13T07:05:11;96573.03;;;13.46;40.22
55171;BME280;41060;47.510;8.680;2023-03-13T07:07:38;96545.50;;;13.55;40.02
55171;BME280;41060;47.510;8.680;2023-03-13T07:10:06;96555.38;;;13.63;41.34
55171;BME280;41060;47.510;8.680;2023-03-13T07:12:34;96551.78;;;13.98;39.51
55171;BME280;41060;47.510;8.680;2023-03-13T07:15:03;96551.19;;;13.60;40.36
55171;BME280;41060;47.510;8.680;2023-03-13T07:17:30;96552.31;;;13.75;40.05
55171;BME280;41060;47.510;8.680;2023-03-13T07:19:57;96564.13;;;13.55;40.74
55171;BME280;41060;47.510;8.680;2023-03-13T07:22:25;96560.13;;;14.03;39.77
55171;BME280;41060;47.510;8.680;2023-03-13T07:24:52;96562.81;;;14.03;39.86
55171;BME280;41060;47.510;8.680;2023-03-13T07:27:18;96556.47;;;14.22;39.38
55171;BME280;41060;47.510;8.680;2023-03-13T07:29:46;96559.88;;;14.32;39.60
55171;BME280;41060;47.510;8.680;2023-03-13T07:32:17;96554.44;;;14.49;39.58
55171;BME280;41060;47.510;8.680;2023-03-13T07:34:45;96558.16;;;14.23;39.80
55171;BME280;41060;47.510;8.680;2023-03-13T07:37:14;96560.91;;;14.39;40.09
55171;BME280;41060;47.510;8.680;2023-03-13T07:39:41;96553.66;;;14.23;40.41
55171;BME280;41060;47.510;8.680;2023-03-13T07:42:08;96575.22;;;14.12;40.28
55171;BME280;41060;47.510;8.680;2023-03-13T07:44:36;96573.94;;;14.50;40.33
55171;BME280;41060;47.510;8.680;2023-03-13T07:47:03;96551.50;;;14.61;39.93
55171;BME280;41060;47.510;8.680;2023-03-13T07:49:31;96573.72;;;14.85;39.37
55171;BME280;41060;47.510;8.680;2023-03-13T07:51:58;96571.91;;;14.44;39.86
55171;BME280;41060;47.510;8.680;2023-03-13T07:54:25;96571.25;;;14.84;39.54
55171;BME280;41060;47.510;8.680;2023-03-13T07:56:51;96562.28;;;15.01;39.27
55171;BME280;41060;47.510;8.680;2023-03-13T07:59:18;96555.38;;;15.32;38.53
55171;BME280;41060;47.510;8.680;2023-03-13T08:01:45;96562.56;;;15.48;38.22
55171;BME280;41060;47.510;8.680;2023-03-13T08:04:13;96534.53;;;15.36;38.33
55171;BME280;41060;47.510;8.680;2023-03-13T08:06:42;96545.56;;;15.49;38.04
55171;BME280;41060;47.510;8.680;2023-03-13T08:09:08;96538.03;;;15.37;38.17
55171;BME280;41060;47.510;8.680;2023-03-13T08:11:37;96521.81;;;15.06;38.43
55171;BME280;41060;47.510;8.680;2023-03-13T08:14:06;96542.56;;;15.28;38.62
55171;BME280;41060;47.510;8.680;2023-03-13T08:16:33;96538.53;;;15.32;38.82
55171;BME280;41060;47.510;8.680;2023-03-13T08:19:00;96526.31;;;14.97;38.90
55171;BME280;41060;47.510;8.680;2023-03-13T08:21:30;96517.56;;;14.71;39.73
55171;BME280;41060;47.510;8.680;2023-03-13T08:24:00;96544.22;;;15.37;39.13
55171;BME280;41060;47.510;8.680;2023-03-13T08:26:28;96530.03;;;15.45;38.64
55171;BME280;41060;47.510;8.680;2023-03-13T08:28:57;96543.53;;;15.59;38.31
55171;BME280;41060;47.510;8.680;2023-03-13T08:31:26;96551.38;;;15.45;38.38
55171;BME280;41060;47.510;8.680;2023-03-13T08:33:53;96548.72;;;15.53;38.41
55171;BME280;41060;47.510;8.680;2023-03-13T08:36:22;96542.56;;;15.85;37.60
55171;BME280;41060;47.510;8.680;2023-03-13T08:38:50;96536.53;;;15.91;37.34
55171;BME280;41060;47.510;8.680;2023-03-13T08:41:20;96521.34;;;15.91;36.79
55171;BME280;41060;47.510;8.680;2023-03-13T08:43:48;96530.50;;;16.13;36.91
55171;BME280;41060;47.510;8.680;2023-03-13T08:46:17;96531.19;;;16.07;36.41
55171;BME280;41060;47.510;8.680;2023-03-13T08:48:43;96518.66;;;16.16;36.24
55171;BME280;41060;47.510;8.680;2023-03-13T08:51:12;96486.13;;;15.96;36.22
55171;BME280;41060;47.510;8.680;2023-03-13T08:53:40;96513.78;;;16.27;35.98
55171;BME280;41060;47.510;8.680;2023-03-13T08:56:07;96510.44;;;16.25;35.76
55171;BME280;41060;47.510;8.680;2023-03-13T08:58:36;96513.28;;;16.32;35.98
55171;BME280;41060;47.510;8.680;2023-03-13T09:01:05;96502.50;;;16.48;35.56
55171;BME280;41060;47.510;8.680;2023-03-13T09:03:32;96496.97;;;16.58;35.54
55171;BME280;41060;47.510;8.680;2023-03-13T09:06:00;96493.72;;;16.70;35.33
55171;BME280;41060;47.510;8.680;2023-03-13T09:08:28;96502.94;;;16.68;35.25
55171;BME280;41060;47.510;8.680;2023-03-13T09:10:55;96495.13;;;16.58;35.29
55171;BME280;41060;47.510;8.680;2023-03-13T09:13:23;96492.78;;;16.86;35.05
55171;BME280;41060;47.510;8.680;2023-03-13T09:15:55;96482.06;;;16.94;35.16
55171;BME280;41060;47.510;8.680;2023-03-13T09:18:22;96472.41;;;17.16;35.08
55171;BME280;41060;47.510;8.680;2023-03-13T09:20:49;96479.09;;;17.20;34.95
55171;BME280;41060;47.510;8.680;2023-03-13T09:23:18;96478.53;;;17.24;34.71
55171;BME280;41060;47.510;8.680;2023-03-13T09:25:45;96470.34;;;17.26;34.86
55171;BME280;41060;47.510;8.680;2023-03-13T09:28:12;96460.81;;;17.23;34.48
55171;BME280;41060;47.510;8.680;2023-03-13T09:30:38;96458.31;;;17.22;34.21
55171;BME280;41060;47.510;8.680;2023-03-13T09:33:07;96446.91;;;17.28;34.02
55171;BME280;41060;47.510;8.680;2023-03-13T09:35:33;96448.31;;;17.39;34.34
55171;BME280;41060;47.510;8.680;2023-03-13T09:38:00;96441.81;;;17.56;33.72
55171;BME280;41060;47.510;8.680;2023-03-13T09:40:27;96441.16;;;17.54;33.36
55171;BME280;41060;47.510;8.680;2023-03-13T09:42:55;96440.72;;;17.50;33.32
55171;BME280;41060;47.510;8.680;2023-03-13T09:45:29;96453.47;;;17.63;33.35
55171;BME280;41060;47.510;8.680;2023-03-13T09:48:03;96443.59;;;17.78;32.67
55171;BME280;41060;47.510;8.680;2023-03-13T09:50:35;96435.28;;;17.73;32.64
55171;BME280;41060;47.510;8.680;2023-03-13T09:53:06;96436.94;;;17.74;32.64
55171;BME280;41060;47.510;8.680;2023-03-13T09:55:40;96420.19;;;17.95;32.55
55171;BME280;41060;47.510;8.680;2023-03-13T09:58:13;96410.41;;;18.02;32.89
55171;BME280;41060;47.510;8.680;2023-03-13T10:00:45;96389.50;;;18.12;32.83
55171;BME280;41060;47.510;8.680;2023-03-13T10:03:16;96369.84;;;18.05;32.69
55171;BME280;41060;47.510;8.680;2023-03-13T10:05:49;96393.75;;;18.21;32.69
55171;BME280;41060;47.510;8.680;2023-03-13T10:08:17;96388.72;;;18.33;32.30
55171;BME280;41060;47.510;8.680;2023-03-13T10:10:48;96361.25;;;18.24;32.33
55171;BME280;41060;47.510;8.680;2023-03-13T10:13:21;96377.66;;;18.36;32.18
55171;BME280;41060;47.510;8.680;2023-03-13T10:15:51;96388.50;;;18.49;32.85
55171;BME280;41060;47.510;8.680;2023-03-13T10:18:22;96376.59;;;18.66;32.42
55171;BME280;41060;47.510;8.680;2023-03-13T10:20:52;96368.41;;;18.74;32.02
55171;BME280;41060;47.510;8.680;2023-03-13T10:23:24;96367.94;;;18.71;32.43
55171;BME280;41060;47.510;8.680;2023-03-13T10:25:52;96345.72;;;18.77;32.43
55171;BME280;41060;47.510;8.680;2023-03-13T10:28:19;96345.19;;;18.82;32.63
55171;BME280;41060;47.510;8.680;2023-03-13T10:30:48;96347.38;;;18.99;32.57
55171;BME280;41060;47.510;8.680;2023-03-13T10:33:19;96346.13;;;18.95;32.69
55171;BME280;41060;47.510;8.680;2023-03-13T10:36:00;96334.19;;;18.98;33.07
55171;BME280;41060;47.510;8.680;2023-03-13T10:38:31;96336.09;;;19.04;33.30
55171;BME280;41060;47.510;8.680;2023-03-13T10:41:00;96317.41;;;19.17;33.31
55171;BME280;41060;47.510;8.680;2023-03-13T10:43:28;96324.72;;;19.30;33.19
55171;BME280;41060;47.510;8.680;2023-03-13T10:45:55;96324.75;;;19.36;33.24
55171;BME280;41060;47.510;8.680;2023-03-13T10:48:23;96330.47;;;19.48;33.34
55171;BME280;41060;47.510;8.680;2023-03-13T10:50:52;96301.88;;;19.40;33.42
55171;BME280;41060;47.510;8.680;2023-03-13T10:53:32;96320.88;;;19.67;33.82
55171;BME280;41060;47.510;8.680;2023-03-13T10:56:08;96314.72;;;19.17;34.14
55171;BME280;41060;47.510;8.680;2023-03-13T10:58:40;96309.25;;;19.32;34.17
55171;BME280;41060;47.510;8.680;2023-03-13T11:01:13;96293.94;;;19.26;33.59
55171;BME280;41060;47.510;8.680;2023-03-13T11:03:41;96302.88;;;19.61;34.36
55171;BME280;41060;47.510;8.680;2023-03-13T11:06:23;96286.44;;;19.77;33.67
55171;BME280;41060;47.510;8.680;2023-03-13T11:08:58;96276.06;;;20.21;33.18
55171;BME280;41060;47.510;8.680;2023-03-13T11:11:25;96254.06;;;19.98;33.16
55171;BME280;41060;47.510;8.680;2023-03-13T11:14:06;96277.66;;;20.77;32.33
55171;BME280;41060;47.510;8.680;2023-03-13T11:16:41;96269.78;;;20.88;31.66
55171;BME280;41060;47.510;8.680;2023-03-13T11:19:46;96262.50;;;20.56;31.78
55171;BME280;41060;47.510;8.680;2023-03-13T11:22:25;96252.56;;;20.37;32.45
55171;BME280;41060;47.510;8.680;2023-03-13T11:25:02;96259.38;;;20.32;32.65
55171;BME280;41060;47.510;8.680;2023-03-13T11:27:35;96246.78;;;20.40;32.38
55171;BME280;41060;47.510;8.680;2023-03-13T11:30:07;96249.88;;;20.30;31.93
55171;BME280;41060;47.510;8.680;2023-03-13T11:32:43;96242.38;;;20.25;32.13
55171;BME280;41060;47.510;8.680;2023-03-13T11:35:28;96243.28;;;20.65;32.10
55171;BME280;41060;47.510;8.680;2023-03-13T11:38:03;96247.41;;;20.55;31.79
55171;BME280;41060;47.510;8.680;2023-03-13T11:40:35;96232.09;;;20.42;32.02
55171;BME280;41060;47.510;8.680;2023-03-13T11:43:23;96223.84;;;20.70;32.35
55171;BME280;41060;47.510;8.680;2023-03-13T11:46:05;96228.59;;;21.07;31.31
55171;BME280;41060;47.510;8.680;2023-03-13T11:48:53;96217.00;;;20.87;31.26
55171;BME280;41060;47.510;8.680;2023-03-13T11:51:32;96210.59;;;21.21;31.20
55171;BME280;41060;47.510;8.680;2023-03-13T11:54:16;96209.50;;;21.29;31.43
55171;BME280;41060;47.510;8.680;2023-03-13T11:56:51;96201.06;;;21.83;29.97
55171;BME280;41060;47.510;8.680;2023-03-13T11:59:31;96196.69;;;21.24;31.13
55171;BME280;41060;47.510;8.680;2023-03-13T12:02:05;96192.41;;;21.68;30.92
55171;BME280;41060;47.510;8.680;2023-03-13T12:04:42;96184.84;;;21.96;30.52
55171;BME280;41060;47.510;8.680;2023-03-13T12:07:15;96180.03;;;22.05;29.53
55171;BME280;41060;47.510;8.680;2023-03-13T12:09:49;96169.34;;;22.23;30.03
55171;BME280;41060;47.510;8.680;2023-03-13T12:12:27;96164.00;;;22.48;29.73
55171;BME280;41060;47.510;8.680;2023-03-13T12:14:59;96153.03;;;22.43;29.57
55171;BME280;41060;47.510;8.680;2023-03-13T12:17:33;96148.84;;;22.72;29.29
55171;BME280;41060;47.510;8.680;2023-03-13T12:20:04;96139.94;;;23.14;29.21
55171;BME280;41060;47.510;8.680;2023-03-13T12:22:35;96136.22;;;23.33;28.52
55171;BME280;41060;47.510;8.680;2023-03-13T12:25:10;96126.16;;;23.40;28.40
55171;BME280;41060;47.510;8.680;2023-03-13T12:27:42;96130.50;;;23.78;28.79
55171;BME280;41060;47.510;8.680;2023-03-13T12:30:18;96123.16;;;23.97;27.92
55171;BME280;41060;47.510;8.680;2023-03-13T12:32:55;96113.91;;;23.56;28.04
55171;BME280;41060;47.510;8.680;2023-03-13T12:35:25;96109.19;;;24.00;28.01
55171;BME280;41060;47.510;8.680;2023-03-13T12:37:57;96102.72;;;24.42;27.53
55171;BME280;41060;47.510;8.680;2023-03-13T12:40:34;96088.84;;;24.50;26.85
55171;BME280;41060;47.510;8.680;2023-03-13T12:43:09;96086.47;;;24.42;26.39
55171;BME280;41060;47.510;8.680;2023-03-13T12:45:46;96069.75;;;23.62;27.50
55171;BME280;41060;47.510;8.680;2023-03-13T12:48:35;96066.25;;;23.73;27.47
55171;BME280;41060;47.510;8.680;2023-03-13T12:51:17;96056.47;;;23.61;27.94
55171;BME280;41060;47.510;8.680;2023-03-13T12:54:10;96058.59;;;24.42;27.39
55171;BME280;41060;47.510;8.680;2023-03-13T12:56:58;96052.50;;;24.58;26.88
55171;BME280;41060;47.510;8.680;2023-03-13T12:59:31;96044.81;;;24.32;26.91
55171;BME280;41060;47.510;8.680;2023-03-13T13:02:13;96035.25;;;23.94;27.77
55171;BME280;41060;47.510;8.680;2023-03-13T13:04:43;96014.00;;;24.56;26.98
55171;BME280;41060;47.510;8.680;2023-03-13T13:07:20;95995.72;;;24.86;26.13
55171;BME280;41060;47.510;8.680;2023-03-13T13:10:00;95987.06;;;25.24;25.71
55171;BME280;41060;47.510;8.680;2023-03-13T13:12:29;95967.88;;;25.26;25.32
55171;BME280;41060;47.510;8.680;2023-03-13T13:15:04;95975.09;;;25.37;24.80